Time;durP1;ratioP1;P1;durP2;ratioP2;P2;SDS_P1;SDS_P2;PMS_P1;PMS_P2;Temp;Humidity;BMP_temperature;BMP_pressure;BME280_temperature;BME280_humidity;BME280_pressure;Samples;Min_cycle;Max_cycle;Signal;HPM_P1;HPM_P2
2021/06/16 04:54:17;;;;;;;8.73;2.98;;;;;;;28.88;39.95;99919.27;1854331;77;22653;-68
2021/06/16 04:56:44;;;;;;;4.90;2.77;;;;;;;28.79;40.56;99929.88;1830242;78;20934;-68
2021/06/16 04:59:11;;;;;;;23.45;3.65;;;;;;;28.79;41.29;99933.90;1829588;78;21492;-69
2021/06/16 05:01:38;;;;;;;4.05;3.10;;;;;;;28.95;41.04;99932.15;1855109;76;21011;-71
2021/06/16 05:04:05;;;;;;;4.30;3.45;;;;;;;29.04;40.61;99938.13;1845219;76;20962;-68
2021/06/16 05:06:33;;;;;;;5.03;3.30;;;;;;;29.09;40.49;99934.30;1832282;77;20987;-68
2021/06/16 05:09:01;;;;;;;4.53;3.00;;;;;;;29.30;39.88;99946.63;1829720;77;20965;-68
2021/06/16 05:11:28;;;;;;;4.45;3.00;;;;;;;29.46;39.53;99951.06;1838992;77;21752;-69
2021/06/16 05:13:55;;;;;;;3.33;2.92;;;;;;;29.40;39.19;99948.37;1772206;78;21397;-69
2021/06/16 05:16:22;;;;;;;7.72;3.10;;;;;;;29.31;39.62;99954.98;1800777;79;20962;-66
2021/06/16 05:18:51;;;;;;;4.95;2.98;;;;;;;29.38;39.77;99957.14;1791283;79;20997;-70
2021/06/16 05:21:18;;;;;;;4.03;2.98;;;;;;;29.37;39.12;99961.68;1789897;79;21057;-69
2021/06/16 05:23:45;;;;;;;3.08;2.70;;;;;;;29.21;40.04;99957.58;1799408;79;21789;-69
2021/06/16 05:26:13;;;;;;;4.65;2.80;;;;;;;29.29;40.09;99961.90;1759366;79;20954;-68
2021/06/16 05:28:40;;;;;;;4.92;2.80;;;;;;;29.56;39.78;99964.05;1791583;79;20952;-67
2021/06/16 05:31:09;;;;;;;3.02;2.50;;;;;;;29.87;38.28;99967.34;1796918;79;20939;-70
2021/06/16 05:33:37;;;;;;;5.90;2.75;;;;;;;29.97;37.83;99960.17;1833826;77;21037;-67
2021/06/16 05:36:08;;;;;;;8.03;3.10;;;;;;;29.98;37.78;99963.16;1830062;77;21480;-74
2021/06/16 05:38:36;;;;;;;11.33;3.37;;;;;;;29.95;37.95;99967.09;1831530;77;20874;-72
2021/06/16 05:41:04;;;;;;;5.08;3.15;;;;;;;30.01;37.83;99972.14;1829206;77;20921;-70
2021/06/16 05:43:32;;;;;;;4.30;2.75;;;;;;;30.08;37.43;99975.63;1834643;77;21064;-69
2021/06/16 05:45:59;;;;;;;3.72;2.60;;;;;;;30.08;37.13;99972.94;1831683;77;20995;-70
2021/06/16 05:48:26;;;;;;;4.10;2.92;;;;;;;30.02;37.52;99979.16;1851931;77;21880;-67
2021/06/16 05:50:53;;;;;;;2.65;2.45;;;;;;;29.88;37.36;99975.70;1830384;77;20969;-66
2021/06/16 05:53:20;;;;;;;3.75;2.47;;;;;;;29.65;37.58;99981.55;1823076;77;21543;-68
2021/06/16 05:55:47;;;;;;;5.08;3.20;;;;;;;29.46;38.72;99982.44;1811252;79;21436;-68
2021/06/16 05:58:15;;;;;;;4.85;2.60;;;;;;;29.58;38.54;99976.74;1799623;79;20954;-71
2021/06/16 06:00:42;;;;;;;4.65;2.90;;;;;;;29.76;37.83;99978.73;1793276;79;21150;-67
2021/06/16 06:03:11;;;;;;;5.10;2.95;;;;;;;29.77;38.19;99973.66;1800937;79;21504;-68
2021/06/16 06:05:38;;;;;;;7.22;2.85;;;;;;;29.85;37.88;99976.94;1790643;78;20885;-66
2021/06/16 06:08:07;;;;;;;2.65;2.45;;;;;;;29.96;37.37;99982.69;1794587;79;20991;-68
2021/06/16 06:10:35;;;;;;;4.50;2.80;;;;;;;30.10;37.23;99981.08;1800105;79;21015;-65
2021/06/16 06:13:02;;;;;;;5.60;2.80;;;;;;;30.26;36.07;99985.66;1809057;79;21421;-74
2021/06/16 06:15:29;;;;;;;4.10;2.70;;;;;;;30.31;35.86;99987.19;1808737;79;20985;-70
2021/06/16 06:17:57;;;;;;;5.00;2.58;;;;;;;30.38;35.85;99998.20;1807868;79;20922;-71
2021/06/16 06:20:24;;;;;;;3.87;2.80;;;;;;;30.40;34.79;99997.96;1800433;78;21005;-66
2021/06/16 06:22:51;;;;;;;6.58;2.70;;;;;;;30.26;35.18;100009.32;1804218;79;20896;-68
2021/06/16 06:25:18;;;;;;;4.85;2.52;;;;;;;30.17;35.28;100003.89;1802105;78;21103;-68
2021/06/16 06:27:45;;;;;;;4.30;2.62;;;;;;;30.20;34.91;100002.12;1794163;79;20938;-68
2021/06/16 06:30:12;;;;;;;6.80;2.75;;;;;;;30.21;35.92;100000.25;1800773;79;20918;-69
2021/06/16 06:32:40;;;;;;;5.85;2.30;;;;;;;30.45;34.70;100000.30;1800541;79;20930;-68
2021/06/16 06:35:08;;;;;;;2.33;2.12;;;;;;;30.59;34.96;100003.77;1800882;79;21661;-67
2021/06/16 06:37:36;;;;;;;2.02;1.90;;;;;;;30.53;34.09;100008.11;1793056;78;21879;-68
2021/06/16 06:40:05;;;;;;;2.50;2.30;;;;;;;30.28;34.83;100005.08;1790428;79;20961;-69
2021/06/16 06:42:32;;;;;;;2.72;2.52;;;;;;;30.18;35.07;100002.84;1802130;79;20907;-67
2021/06/16 06:44:59;;;;;;;3.25;2.37;;;;;;;30.12;33.97;99998.33;1800535;79;20872;-67
2021/06/16 06:47:28;;;;;;;4.15;2.30;;;;;;;29.90;34.15;100017.09;1800774;79;20958;-68
2021/06/16 06:49:55;;;;;;;2.65;2.45;;;;;;;29.62;34.92;100012.83;1805520;78;21519;-65
2021/06/16 06:52:22;;;;;;;3.22;2.40;;;;;;;29.45;35.25;100010.30;1807714;78;20993;-66
2021/06/16 06:54:52;;;;;;;5.42;2.55;;;;;;;29.40;35.62;100010.89;1816654;77;20901;-68
2021/06/16 06:57:19;;;;;;;3.25;2.80;;;;;;;29.41;36.17;100014.44;1811723;77;21034;-67
2021/06/16 06:59:48;;;;;;;4.90;2.70;;;;;;;29.54;35.50;100011.73;1832625;77;20979;-66
2021/06/16 07:02:15;;;;;;;4.83;2.37;;;;;;;29.59;35.22;100017.27;1793829;79;22063;-70
2021/06/16 07:04:43;;;;;;;2.15;2.05;;;;;;;29.73;35.43;100019.41;1797416;79;21059;-71
2021/06/16 07:07:10;;;;;;;3.67;2.12;;;;;;;29.83;33.94;100016.59;1773383;79;21026;-66
2021/06/16 07:09:38;;;;;;;2.00;1.90;;;;;;;29.70;34.21;100010.44;1798490;79;20856;-66
2021/06/16 07:12:07;;;;;;;3.58;1.92;;;;;;;29.66;34.32;100014.05;1782582;79;20970;-68
2021/06/16 07:14:37;;;;;;;2.87;2.02;;;;;;;29.69;33.66;100016.84;1776969;79;21057;-66
2021/06/16 07:17:03;;;;;;;2.37;2.12;;;;;;;29.63;33.87;100013.13;1786409;78;20903;-65
2021/06/16 07:19:30;;;;;;;1.87;1.72;;;;;;;29.58;34.83;100014.31;1774807;79;20976;-68
2021/06/16 07:21:58;;;;;;;3.52;1.85;;;;;;;29.68;34.59;100017.36;1778595;79;20946;-71
2021/06/16 07:24:27;;;;;;;2.40;2.05;;;;;;;29.71;34.06;100013.43;1773153;79;21005;-69
2021/06/16 07:26:55;;;;;;;3.75;2.35;;;;;;;29.70;34.10;100012.60;1787005;79;21140;-70
2021/06/16 07:29:23;;;;;;;2.55;2.15;;;;;;;29.79;34.44;100012.69;1765266;79;20947;-71
2021/06/16 07:31:51;;;;;;;3.80;2.15;;;;;;;29.89;34.03;100014.11;1798694;78;20982;-72
2021/06/16 07:34:18;;;;;;;2.72;2.15;;;;;;;29.88;33.85;100012.45;1795905;79;21592;-72
2021/06/16 07:36:46;;;;;;;2.35;2.15;;;;;;;29.82;33.92;100018.15;1791598;79;20963;-66
2021/06/16 07:39:13;;;;;;;3.90;2.20;;;;;;;29.79;34.23;100015.89;1832927;77;21112;-70
2021/06/16 07:41:40;;;;;;;3.05;1.87;;;;;;;29.66;34.38;100019.42;1823724;77;21005;-70
2021/06/16 07:44:08;;;;;;;3.40;2.20;;;;;;;29.57;34.60;100020.71;1826153;77;20928;-66
2021/06/16 07:46:35;;;;;;;2.77;2.17;;;;;;;29.60;34.51;100016.75;1831350;77;20857;-69
2021/06/16 07:49:02;;;;;;;3.40;2.67;;;;;;;29.62;34.76;100018.71;1825102;77;20936;-66
2021/06/16 07:51:30;;;;;;;4.72;2.20;;;;;;;29.74;34.11;100012.48;1830145;77;21508;-69
2021/06/16 07:53:57;;;;;;;5.15;2.27;;;;;;;29.97;33.07;100008.50;1830912;77;20878;-68
2021/06/16 07:56:24;;;;;;;2.22;2.00;;;;;;;30.05;33.64;100015.81;1842615;76;20938;-66
2021/06/16 07:58:52;;;;;;;2.80;2.10;;;;;;;30.15;33.66;100009.98;1837766;76;20990;-68
2021/06/16 08:01:21;;;;;;;4.90;2.15;;;;;;;30.30;32.57;100015.91;1840635;76;20900;-69
2021/06/16 08:03:49;;;;;;;2.77;2.20;;;;;;;30.30;32.43;100018.60;1845782;76;21093;-68
2021/06/16 08:06:17;;;;;;;3.47;1.72;;;;;;;30.24;32.82;100007.89;1846829;77;20938;-67
2021/06/16 08:08:44;;;;;;;2.17;1.98;;;;;;;30.16;32.52;100015.14;1842838;76;20930;-67
2021/06/16 08:11:11;;;;;;;3.95;2.10;;;;;;;30.11;33.37;100014.96;1836199;77;20906;-70
2021/06/16 08:13:39;;;;;;;3.35;2.02;;;;;;;30.10;32.87;100009.28;1800680;76;20859;-68
2021/06/16 08:16:06;;;;;;;1.98;1.80;;;;;;;29.91;32.65;100011.52;1840239;76;21060;-71
2021/06/16 08:18:33;;;;;;;2.22;1.87;;;;;;;29.77;33.18;100009.91;1834229;77;20976;-72
2021/06/16 08:21:00;;;;;;;4.10;1.70;;;;;;;29.76;33.47;100009.08;1839402;76;21552;-71
2021/06/16 08:23:28;;;;;;;2.35;1.80;;;;;;;29.89;32.91;100016.79;1835952;77;20980;-71
2021/06/16 08:25:56;;;;;;;2.10;1.92;;;;;;;29.89;32.54;100022.16;1832256;76;21027;-76
2021/06/16 08:28:25;;;;;;;6.58;1.90;;;;;;;29.94;33.63;100029.06;1831222;76;21208;-74
2021/06/16 08:30:54;;;;;;;3.58;1.85;;;;;;;30.08;32.81;100027.47;1842215;76;20938;-70
2021/06/16 08:33:21;;;;;;;2.47;1.60;;;;;;;30.04;32.35;100026.77;1839586;76;20973;-71
2021/06/16 08:35:48;;;;;;;5.60;1.98;;;;;;;29.91;32.48;100033.52;1836198;76;21363;-69
2021/06/16 08:38:15;;;;;;;2.37;1.60;;;;;;;29.59;32.26;100026.66;1850742;77;21127;-76
2021/06/16 08:40:42;;;;;;;6.40;2.00;;;;;;;29.32;33.00;100021.01;1837766;77;21515;-69
2021/06/16 08:43:10;;;;;;;2.05;1.57;;;;;;;29.19;33.01;100033.39;1837267;76;20971;-70
2021/06/16 08:45:38;;;;;;;5.35;2.10;;;;;;;29.16;32.92;100035.17;1827606;77;20883;-73
2021/06/16 08:48:06;;;;;;;6.37;1.80;;;;;;;29.17;33.37;100027.44;1847867;76;20866;-67
2021/06/16 08:50:33;;;;;;;1.60;1.50;;;;;;;29.15;33.55;100026.81;1831282;76;20975;-72
2021/06/16 08:53:02;;;;;;;2.08;1.80;;;;;;;29.13;33.12;100027.54;1835205;76;21086;-73
2021/06/16 08:55:29;;;;;;;9.18;2.00;;;;;;;29.13;33.47;100032.91;1830561;77;20877;-76
2021/06/16 08:57:59;;;;;;;3.67;1.72;;;;;;;29.08;33.73;100034.55;1828315;77;21474;-71
2021/06/16 09:00:26;;;;;;;2.30;1.72;;;;;;;28.95;33.89;100050.10;1810623;77;20877;-66
2021/06/16 09:02:53;;;;;;;3.83;1.60;;;;;;;28.83;34.47;100036.98;1817110;77;21510;-70
2021/06/16 09:05:20;;;;;;;2.50;1.70;;;;;;;28.73;35.39;100037.89;1808003;78;21064;-74
2021/06/16 09:07:47;;;;;;;3.80;1.72;;;;;;;28.76;35.60;100036.14;1732138;79;20913;-72
2021/06/16 09:10:21;;;;;;;1.92;1.72;;;;;;;28.76;35.37;100032.12;1810262;78;20966;-69
2021/06/16 09:12:58;;;;;;;2.83;1.45;;;;;;;28.75;34.97;100039.86;1785381;79;21502;-74
2021/06/16 09:15:29;;;;;;;3.10;1.70;;;;;;;28.66;34.24;100040.55;1765425;79;20987;-73
2021/06/16 09:18:14;;;;;;;1.80;1.35;;;;;;;28.49;35.36;100047.30;1788010;79;22129;-69
2021/06/16 09:20:46;;;;;;;2.40;1.87;;;;;;;28.37;35.82;100044.92;1766846;80;20944;-70
2021/06/16 09:23:28;;;;;;;1.90;1.70;;;;;;;28.21;35.90;100040.22;1762581;80;20992;-69
2021/06/16 09:26:20;;;;;;;5.00;1.80;;;;;;;28.06;36.19;100038.16;1762873;80;21442;-70
2021/06/16 09:28:51;;;;;;;3.22;1.70;;;;;;;27.80;36.75;100041.54;1749919;81;20878;-71
2021/06/16 09:31:20;;;;;;;2.98;1.57;;;;;;;27.63;37.40;100024.66;1816431;77;21088;-69
2021/06/16 09:33:48;;;;;;;3.05;1.92;;;;;;;27.66;37.68;100034.45;1827388;77;20971;-68
2021/06/16 09:36:18;;;;;;;1.90;1.80;;;;;;;27.65;37.88;100026.11;1819917;77;20975;-73
2021/06/16 09:38:47;;;;;;;3.80;2.10;;;;;;;27.59;38.40;100036.28;1815405;78;21084;-65
2021/06/16 09:41:21;;;;;;;1.60;1.47;;;;;;;27.61;37.95;100030.20;1818068;77;21003;-67
2021/06/16 09:43:53;;;;;;;1.90;1.70;;;;;;;27.61;37.98;100032.05;1828862;77;21753;-66
2021/06/16 09:46:19;;;;;;;2.70;2.02;;;;;;;27.49;38.31;100025.07;1814555;77;20991;-70
2021/06/16 09:48:46;;;;;;;2.12;1.77;;;;;;;27.36;38.36;100019.63;1813129;79;21065;-72
2021/06/16 09:51:18;;;;;;;3.72;1.75;;;;;;;27.22;38.03;100016.84;1819583;77;21190;-72
2021/06/16 09:54:18;;;;;;;2.22;1.50;;;;;;;27.16;37.74;100013.64;1835131;77;21095;-73
2021/06/16 09:56:59;;;;;;;2.10;1.87;;;;;;;27.11;38.05;100016.57;1827754;77;21377;-71
2021/06/16 09:59:42;;;;;;;4.35;1.55;;;;;;;27.05;37.45;100016.83;1818367;78;21449;-71
2021/06/16 10:02:23;;;;;;;1.70;1.60;;;;;;;26.97;38.06;99997.42;1819232;77;20899;-68
2021/06/16 10:04:59;;;;;;;2.52;1.90;;;;;;;27.00;38.40;100014.41;1822075;77;22091;-69
2021/06/16 10:07:31;;;;;;;5.25;1.80;;;;;;;27.01;38.14;100004.04;1831226;77;20999;-69
2021/06/16 10:10:09;;;;;;;1.98;1.80;;;;;;;27.03;38.18;100014.03;1813227;77;21602;-70
2021/06/16 10:12:44;;;;;;;3.08;2.10;;;;;;;27.00;37.69;100017.91;1807974;77;20998;-70
2021/06/16 10:15:14;;;;;;;2.83;1.85;;;;;;;26.91;38.50;100013.69;1841289;77;20999;-69
2021/06/16 10:17:43;;;;;;;1.92;1.70;;;;;;;26.92;39.76;100009.99;1792325;77;21028;-69
2021/06/16 10:20:11;;;;;;;2.80;1.70;;;;;;;26.99;38.80;100008.75;1784462;80;20926;-67
2021/06/16 10:22:38;;;;;;;2.55;1.50;;;;;;;26.99;39.34;100004.74;1785006;80;21157;-67
2021/06/16 10:25:06;;;;;;;4.55;1.92;;;;;;;26.99;39.17;100006.91;1791257;77;20979;-67
2021/06/16 10:27:38;;;;;;;2.70;2.02;;;;;;;27.03;39.47;100010.84;1806234;77;20927;-67
2021/06/16 10:30:13;;;;;;;4.25;1.98;;;;;;;27.08;40.30;100001.74;1798733;77;20931;-66
2021/06/16 10:32:43;;;;;;;2.58;1.95;;;;;;;27.14;40.00;100006.83;1807905;77;20926;-66
2021/06/16 10:35:13;;;;;;;3.92;2.20;;;;;;;27.17;40.24;99996.58;1765538;80;21469;-69
2021/06/16 10:37:44;;;;;;;2.55;1.80;;;;;;;27.17;40.29;99996.58;1773845;80;21522;-71
2021/06/16 10:40:25;;;;;;;3.30;2.00;;;;;;;27.21;39.70;100000.48;1778662;80;21006;-71
2021/06/16 10:43:09;;;;;;;2.17;1.80;;;;;;;27.21;38.99;100000.48;1775893;80;20971;-71
2021/06/16 10:45:38;;;;;;;3.50;1.92;;;;;;;27.20;38.91;100001.50;1779072;80;20959;-73
2021/06/16 10:48:09;;;;;;;1.67;1.57;;;;;;;27.24;39.93;100008.12;1753518;80;21757;-72
2021/06/16 10:50:53;;;;;;;4.25;1.80;;;;;;;27.35;39.28;100001.92;1794877;79;21018;-70
2021/06/16 10:53:24;;;;;;;6.37;1.98;;;;;;;27.45;38.65;100004.58;1779398;79;21061;-73
2021/06/16 10:56:03;;;;;;;3.72;1.82;;;;;;;27.56;38.44;100006.70;1771360;79;20990;-73
2021/06/16 10:58:33;;;;;;;4.55;1.98;;;;;;;27.63;38.78;100000.58;1782483;79;21002;-73
2021/06/16 11:01:19;;;;;;;2.58;1.90;;;;;;;27.59;38.71;100000.17;1783658;79;21138;-73
2021/06/16 11:03:57;;;;;;;3.12;2.00;;;;;;;27.53;38.67;99995.06;1775027;79;20947;-69
2021/06/16 11:06:38;;;;;;;3.00;2.05;;;;;;;27.39;39.44;99987.14;1782510;78;21489;-68
2021/06/16 11:09:09;;;;;;;2.55;1.77;;;;;;;27.25;39.85;99991.56;1785751;78;21463;-69
2021/06/16 11:12:03;;;;;;;2.25;1.90;;;;;;;27.15;40.06;99977.23;1773872;78;20919;-65
2021/06/16 11:14:42;;;;;;;6.70;2.33;;;;;;;27.16;40.21;99983.41;1782970;79;21101;-67
2021/06/16 11:17:11;;;;;;;3.55;2.00;;;;;;;27.18;39.75;99967.48;1791592;78;21469;-66
2021/06/16 11:19:40;;;;;;;2.83;2.00;;;;;;;27.24;39.84;99973.36;1821171;77;21049;-68
2021/06/16 11:22:19;;;;;;;2.60;1.92;;;;;;;27.23;39.76;99973.05;1805200;77;20889;-72
2021/06/16 11:25:15;;;;;;;4.55;2.60;;;;;;;27.17;40.25;99970.36;1834498;77;21365;-64
2021/06/16 11:28:09;;;;;;;2.02;1.92;;;;;;;27.09;40.95;99978.00;1787535;79;21540;-69
2021/06/16 11:30:56;;;;;;;2.02;1.92;;;;;;;27.01;41.15;99979.48;1794300;79;21548;-68
2021/06/16 11:33:28;;;;;;;2.75;1.67;;;;;;;27.00;40.35;99984.50;1792825;79;21047;-66
2021/06/16 11:36:02;;;;;;;2.22;1.80;;;;;;;27.01;39.73;99986.67;1784872;79;20970;-67
2021/06/16 11:38:43;;;;;;;3.98;2.27;;;;;;;27.03;40.21;99989.98;1788628;79;26780;-69
2021/06/16 11:41:18;;;;;;;3.33;1.90;;;;;;;27.08;40.58;99986.22;1772349;79;21434;-72
2021/06/16 11:43:57;;;;;;;2.27;2.08;;;;;;;27.09;41.27;99985.20;1796911;79;20963;-71
2021/06/16 11:46:34;;;;;;;2.33;2.12;;;;;;;27.08;41.67;99996.40;1798538;79;21451;-71
2021/06/16 11:49:06;;;;;;;2.85;2.00;;;;;;;27.10;40.67;99994.87;1797800;79;20896;-67
2021/06/16 11:51:57;;;;;;;3.12;2.30;;;;;;;27.10;40.08;99990.86;1795732;79;20984;-69
2021/06/16 11:54:43;;;;;;;3.60;2.45;;;;;;;27.08;40.34;99988.89;1794384;79;21593;-70
2021/06/16 11:57:12;;;;;;;4.85;2.30;;;;;;;27.08;40.45;99991.56;1797102;79;21480;-72
2021/06/16 11:59:45;;;;;;;6.78;2.72;;;;;;;27.01;40.88;99986.16;1804686;79;21004;-69
2021/06/16 12:02:23;;;;;;;4.55;2.45;;;;;;;27.00;41.66;99985.02;1789366;79;21497;-70
2021/06/16 12:05:05;;;;;;;3.00;2.62;;;;;;;27.00;41.84;99991.19;1796485;79;20986;-67
2021/06/16 12:07:39;;;;;;;5.95;2.30;;;;;;;27.02;40.96;99987.81;1790995;79;21060;-66
2021/06/16 12:10:08;;;;;;;5.75;2.70;;;;;;;27.08;40.93;99992.39;1822143;77;21078;-68
2021/06/16 12:12:51;;;;;;;3.80;2.35;;;;;;;27.18;41.39;99987.54;1825901;77;20926;-68
2021/06/16 12:15:23;;;;;;;2.98;2.02;;;;;;;27.25;41.36;99991.56;1830890;77;21330;-67
2021/06/16 12:18:10;;;;;;;5.95;2.42;;;;;;;27.28;40.87;99991.18;1782139;79;21632;-64
2021/06/16 12:20:52;;;;;;;5.62;2.67;;;;;;;27.24;41.45;99994.75;1791056;79;21134;-69
2021/06/16 12:23:37;;;;;;;3.60;2.05;;;;;;;27.11;41.06;99989.84;1788832;79;20890;-68
2021/06/16 12:26:20;;;;;;;2.00;1.90;;;;;;;27.03;41.40;99985.97;1832620;77;20955;-69
2021/06/16 12:28:51;;;;;;;3.62;1.95;;;;;;;27.01;41.08;99987.50;1834654;77;20901;-68
2021/06/16 12:31:26;;;;;;;2.35;1.92;;;;;;;27.01;40.45;99989.34;1837622;77;21076;-71
2021/06/16 12:34:13;;;;;;;4.40;1.92;;;;;;;27.03;39.84;99982.78;1835383;77;21084;-66
2021/06/16 12:36:22;;;;;;;3.15;2.00;;;;;;;27.08;41.09;99990.22;1830328;77;21506;-67
2021/06/16 12:38:54;;;;;;;3.52;2.20;;;;;;;27.11;42.59;99975.97;1837394;77;20967;-71
2021/06/16 12:41:34;;;;;;;5.92;2.67;;;;;;;27.11;43.07;99973.29;1835885;77;21474;-67
2021/06/16 12:44:21;;;;;;;2.15;2.05;;;;;;;27.07;42.71;99969.35;1833523;77;20998;-68
2021/06/16 12:47:02;;;;;;;2.58;2.37;;;;;;;27.02;42.80;99974.96;1827879;77;21145;-69
2021/06/16 12:49:46;;;;;;;5.40;2.45;;;;;;;26.95;42.84;99968.70;1824505;77;20878;-65
2021/06/16 12:52:15;;;;;;;5.03;2.37;;;;;;;26.91;42.89;99968.26;1815431;77;21485;-66
2021/06/16 12:54:46;;;;;;;4.12;2.00;;;;;;;26.87;42.11;99952.29;1828551;77;20975;-69
2021/06/16 12:57:20;;;;;;;2.77;2.08;;;;;;;26.88;41.86;99951.27;1790989;78;21465;-66
2021/06/16 12:59:53;;;;;;;;;;;;;;;26.86;41.38;99960.81;1810308;78;21919;-68
2021/06/16 13:02:30;;;;;;;2.72;2.17;;;;;;;26.81;42.25;99949.05;1802216;78;20395;-69
2021/06/16 13:05:04;;;;;;;2.35;2.15;;;;;;;26.79;43.55;99953.80;1803592;78;20974;-65
2021/06/16 13:07:46;;;;;;;2.60;2.10;;;;;;;26.77;43.54;99965.18;1791837;78;20954;-66
2021/06/16 13:10:28;;;;;;;3.47;2.10;;;;;;;26.70;42.11;99958.95;1801370;78;21013;-66
2021/06/16 13:13:00;;;;;;;2.15;2.02;;;;;;;26.63;41.63;99954.05;1810295;78;21533;-68
2021/06/16 13:15:42;;;;;;;2.35;1.95;;;;;;;26.61;41.07;99950.74;1814148;78;20988;-71
2021/06/16 13:18:20;;;;;;;2.27;2.17;;;;;;;26.61;41.65;99946.23;1794408;79;20942;-68
2021/06/16 13:20:49;;;;;;;2.83;2.40;;;;;;;26.65;42.87;99948.84;1791482;80;20883;-66
2021/06/16 13:23:23;;;;;;;2.40;2.20;;;;;;;26.68;43.36;99951.12;1790036;78;20883;-66
2021/06/16 13:25:54;;;;;;;;;;;;;;;26.70;43.79;99949.09;1785630;78;21053;-67
2021/06/16 13:28:39;;;;;;;2.70;2.50;;;;;;;26.69;44.05;99962.63;1797376;78;20127;-67
2021/06/16 13:31:21;;;;;;;3.47;2.40;;;;;;;26.58;43.92;99963.46;1792539;78;21650;-66
2021/06/16 13:33:49;;;;;;;3.87;2.50;;;;;;;26.53;43.75;99965.05;1778076;78;21013;-67
2021/06/16 13:36:19;;;;;;;6.22;2.67;;;;;;;26.51;44.02;99966.57;1759032;80;20922;-65
2021/06/16 13:38:49;;;;;;;3.52;2.27;;;;;;;26.53;43.93;99967.72;1799518;78;21076;-69
2021/06/16 13:41:18;;;;;;;2.95;2.02;;;;;;;26.57;44.04;99966.32;1812395;78;20999;-68
2021/06/16 13:43:45;;;;;;;2.40;2.20;;;;;;;26.61;43.28;99974.27;1793966;78;20987;-67
2021/06/16 13:46:12;;;;;;;2.12;1.98;;;;;;;26.60;42.89;99975.80;1815974;78;20928;-68
2021/06/16 13:48:41;;;;;;;2.83;2.15;;;;;;;26.57;42.40;99981.84;1794799;78;20994;-66
2021/06/16 13:51:09;;;;;;;3.35;2.25;;;;;;;26.48;42.80;99975.47;1807592;78;21947;-69
2021/06/16 13:53:36;;;;;;;2.62;2.00;;;;;;;26.45;42.86;99979.34;1804412;78;21045;-73
2021/06/16 13:56:04;;;;;;;2.20;2.00;;;;;;;26.46;42.87;99982.33;1818224;77;20981;-68
2021/06/16 13:58:31;;;;;;;5.58;2.37;;;;;;;26.47;43.30;99981.31;1818820;77;21067;-68
2021/06/16 14:01:00;;;;;;;2.33;2.12;;;;;;;26.49;43.92;99983.30;1819242;77;21503;-72
2021/06/16 14:03:28;;;;;;;4.95;1.65;;;;;;;26.50;42.21;99983.61;1801209;79;21113;-68
2021/06/16 14:05:56;;;;;;;5.08;2.05;;;;;;;26.51;41.76;99985.27;1815774;77;21980;-66
2021/06/16 14:08:23;;;;;;;3.62;2.15;;;;;;;26.48;42.06;99985.64;1827236;77;21061;-67
